Time;durP1;ratioP1;P1;durP2;ratioP2;P2;SDS_P1;SDS_P2;PMS_P1;PMS_P2;Temp;Humidity;BMP_temperature;BMP_pressure;BME280_temperature;BME280_humidity;BME280_pressure;Samples;Min_cycle;Max_cycle;Signal;HPM_P1;HPM_P2
2022/10/12 00:00:38;;;;;;;53.60;35.87;;;3.50;99.90;;;;;;5026371;28;20789;-67
2022/10/12 00:03:07;;;;;;;32.07;28.00;;;3.50;99.90;;;;;;5023903;28;20838;-67
2022/10/12 00:05:33;;;;;;;33.17;26.53;;;3.60;99.90;;;;;;5025806;28;20493;-67
2022/10/12 00:08:01;;;;;;;35.00;27.13;;;3.50;99.90;;;;;;5026165;28;20817;-67
2022/10/12 00:10:28;;;;;;;28.07;25.00;;;3.40;99.90;;;;;;5025028;28;20591;-66
2022/10/12 00:12:55;;;;;;;28.40;25.40;;;3.50;99.90;;;;;;5021977;28;20476;-67
2022/10/12 00:15:22;;;;;;;28.97;26.27;;;3.50;99.90;;;;;;5023284;28;20461;-67
2022/10/12 00:17:48;;;;;;;45.20;27.20;;;3.50;99.90;;;;;;5024789;28;20476;-67
2022/10/12 00:20:17;;;;;;;36.10;26.80;;;3.50;99.90;;;;;;5022058;28;20485;-66
2022/10/12 00:22:44;;;;;;;26.87;24.17;;;3.50;99.90;;;;;;5023743;28;20460;-67
2022/10/12 00:25:12;;;;;;;30.60;23.70;;;3.50;99.90;;;;;;5022653;28;20464;-67
2022/10/12 00:27:39;;;;;;;27.43;24.53;;;3.40;99.90;;;;;;5016335;28;20495;-67
2022/10/12 00:30:07;;;;;;;29.80;25.30;;;3.40;99.90;;;;;;5022015;28;20976;-67
2022/10/12 00:32:34;;;;;;;28.50;24.80;;;3.30;99.90;;;;;;5025601;28;20472;-67
2022/10/12 00:35:01;;;;;;;28.93;24.57;;;3.30;99.90;;;;;;5024299;28;20457;-66
2022/10/12 00:37:29;;;;;;;28.87;25.97;;;3.30;99.90;;;;;;5023209;28;20859;-66
2022/10/12 00:39:56;;;;;;;30.23;24.97;;;3.30;99.90;;;;;;5024241;28;20461;-66
2022/10/12 00:42:22;;;;;;;28.30;25.40;;;3.30;99.90;;;;;;5023274;28;20464;-66
2022/10/12 00:44:51;;;;;;;29.43;24.70;;;3.30;99.90;;;;;;5019683;28;20840;-66
2022/10/12 00:47:24;;;;;;;29.10;25.97;;;3.30;99.90;;;;;;5021504;28;20516;-66
2022/10/12 00:49:54;;;;;;;27.57;25.07;;;3.30;99.90;;;;;;5016867;28;20480;-67
2022/10/12 00:52:24;;;;;;;28.33;25.53;;;3.30;99.90;;;;;;5025040;28;20471;-67
2022/10/12 00:54:54;;;;;;;33.77;26.00;;;3.30;99.90;;;;;;5014375;28;20491;-67
2022/10/12 00:57:22;;;;;;;27.53;24.73;;;3.20;99.90;;;;;;5022956;28;20557;-67
2022/10/12 00:59:53;;;;;;;26.53;24.00;;;3.20;99.90;;;;;;5026040;28;20465;-67
2022/10/12 01:02:22;;;;;;;27.70;25.10;;;3.20;99.90;;;;;;5020366;28;20827;-67
2022/10/12 01:04:49;;;;;;;26.80;24.10;;;3.20;99.90;;;;;;5020529;28;20746;-66
2022/10/12 01:07:15;;;;;;;25.67;23.00;;;3.20;99.90;;;;;;5024475;28;20499;-67
2022/10/12 01:09:42;;;;;;;28.83;25.67;;;3.10;99.90;;;;;;5025950;28;20468;-67
2022/10/12 01:12:11;;;;;;;31.90;25.17;;;3.20;99.90;;;;;;5017394;28;20474;-66
2022/10/12 01:14:39;;;;;;;34.83;25.10;;;3.20;99.90;;;;;;5021500;28;20830;-67
2022/10/12 01:17:16;;;;;;;31.00;27.77;;;3.20;99.90;;;;;;5026451;28;20469;-66
2022/10/12 01:20:05;;;;;;;38.33;26.67;;;3.30;99.90;;;;;;5021043;28;20469;-66
2022/10/12 01:22:36;;;;;;;34.93;25.10;;;3.20;99.90;;;;;;5023518;28;20456;-66
2022/10/12 01:25:17;;;;;;;28.17;25.27;;;3.20;99.90;;;;;;5023306;28;20495;-66
2022/10/12 01:27:48;;;;;;;28.87;25.90;;;3.30;99.90;;;;;;5022847;28;20854;-67
2022/10/12 01:30:21;;;;;;;35.03;25.50;;;3.40;99.90;;;;;;5025856;28;20463;-66
2022/10/12 01:33:17;;;;;;;28.53;25.40;;;3.40;99.90;;;;;;5021703;28;20493;-66
2022/10/12 01:35:51;;;;;;;29.27;25.53;;;3.30;99.90;;;;;;5024979;28;20464;-66
2022/10/12 01:38:28;;;;;;;28.53;25.43;;;3.30;99.90;;;;;;5020645;28;20488;-66
2022/10/12 01:41:07;;;;;;;43.87;25.03;;;3.20;99.90;;;;;;5016985;28;20968;-67
2022/10/12 01:43:35;;;;;;;27.73;24.20;;;3.10;99.90;;;;;;5019001;28;20900;-66
2022/10/12 01:46:23;;;;;;;28.17;24.00;;;3.20;99.90;;;;;;5022268;28;20524;-67
2022/10/12 01:48:53;;;;;;;50.40;28.17;;;3.20;99.90;;;;;;5021434;28;21031;-67
2022/10/12 01:51:27;;;;;;;26.30;23.50;;;3.10;99.90;;;;;;5021369;28;20460;-67
2022/10/12 01:54:02;;;;;;;32.43;24.40;;;3.00;99.90;;;;;;5019789;28;20836;-67
2022/10/12 01:56:35;;;;;;;29.23;23.33;;;2.90;99.90;;;;;;5021748;28;20469;-66
2022/10/12 01:59:11;;;;;;;29.73;24.10;;;2.90;99.90;;;;;;5023317;28;20503;-66
2022/10/12 02:01:42;;;;;;;26.53;23.90;;;2.90;99.90;;;;;;5023627;28;20464;-66
2022/10/12 02:04:16;;;;;;;27.53;23.57;;;2.90;99.90;;;;;;5023184;28;20489;-66
2022/10/12 02:06:49;;;;;;;30.57;24.03;;;2.90;99.90;;;;;;5024418;28;20496;-66
2022/10/12 02:09:21;;;;;;;26.20;23.40;;;2.90;99.90;;;;;;5019292;28;20818;-66
2022/10/12 02:11:53;;;;;;;26.57;23.90;;;2.90;99.90;;;;;;5016076;28;21276;-66
2022/10/12 02:14:22;;;;;;;25.63;22.83;;;3.00;99.90;;;;;;5020241;28;20469;-66
2022/10/12 02:16:53;;;;;;;27.50;24.60;;;3.00;99.90;;;;;;5021707;28;20481;-66
2022/10/12 02:19:23;;;;;;;26.87;24.13;;;3.00;99.90;;;;;;5016974;28;20485;-66
2022/10/12 02:21:52;;;;;;;26.13;23.50;;;3.00;99.90;;;;;;5023904;28;20487;-67
2022/10/12 02:24:22;;;;;;;27.90;23.00;;;3.00;99.90;;;;;;5022182;28;20469;-66
2022/10/12 02:26:52;;;;;;;31.30;24.93;;;2.90;99.90;;;;;;5024631;28;21012;-66
2022/10/12 02:29:23;;;;;;;30.80;24.90;;;2.90;99.90;;;;;;5023196;28;20872;-66
2022/10/12 02:31:58;;;;;;;30.30;24.80;;;2.80;99.90;;;;;;5021076;28;20999;-66
2022/10/12 02:34:30;;;;;;;26.37;23.50;;;2.80;99.90;;;;;;5022978;28;20977;-66
2022/10/12 02:37:04;;;;;;;35.07;23.47;;;2.80;99.90;;;;;;5017928;28;20467;-66
2022/10/12 02:39:36;;;;;;;24.83;22.43;;;2.80;99.90;;;;;;5020569;28;21410;-66
2022/10/12 02:42:09;;;;;;;27.00;24.13;;;2.80;99.90;;;;;;5019865;28;20514;-66
2022/10/12 02:44:39;;;;;;;27.00;23.73;;;2.80;99.90;;;;;;5024071;28;20456;-66
2022/10/12 02:47:09;;;;;;;26.23;23.47;;;2.70;99.90;;;;;;5019810;28;20565;-67
2022/10/12 02:49:37;;;;;;;29.70;23.80;;;2.70;99.90;;;;;;5022641;28;20473;-66
2022/10/12 02:52:07;;;;;;;31.77;22.50;;;2.80;99.90;;;;;;5018514;28;20468;-66
2022/10/12 02:54:34;;;;;;;25.87;23.50;;;2.80;99.90;;;;;;5017660;28;20472;-66
2022/10/12 02:57:01;;;;;;;29.10;24.53;;;2.80;99.90;;;;;;5017569;28;20927;-66
2022/10/12 02:59:28;;;;;;;43.27;23.77;;;2.70;99.90;;;;;;5021922;28;20555;-66
2022/10/12 03:01:55;;;;;;;25.43;23.10;;;2.80;99.90;;;;;;5023797;28;20470;-66
2022/10/12 03:04:23;;;;;;;28.20;23.87;;;2.70;99.90;;;;;;5021263;28;20463;-66
2022/10/12 03:06:50;;;;;;;28.77;23.03;;;2.70;99.90;;;;;;5023372;28;20522;-66
2022/10/12 03:09:18;;;;;;;27.70;24.13;;;2.70;99.90;;;;;;5022340;28;20459;-66
2022/10/12 03:11:44;;;;;;;27.83;22.50;;;2.70;99.90;;;;;;5019259;28;20547;-66
2022/10/12 03:14:12;;;;;;;26.97;22.60;;;2.70;99.90;;;;;;5023035;28;20470;-66
2022/10/12 03:16:39;;;;;;;26.70;24.00;;;2.70;99.90;;;;;;5020034;28;20476;-66
2022/10/12 03:19:05;;;;;;;25.17;22.50;;;2.70;99.90;;;;;;5018274;28;20485;-66
2022/10/12 03:21:34;;;;;;;25.87;23.00;;;2.60;99.90;;;;;;5019827;28;20547;-66
2022/10/12 03:24:00;;;;;;;25.17;22.40;;;2.60;99.90;;;;;;5024126;28;20786;-66
2022/10/12 03:26:27;;;;;;;25.97;23.30;;;2.70;99.90;;;;;;5025386;28;20564;-66
2022/10/12 03:28:54;;;;;;;34.67;23.30;;;2.70;99.90;;;;;;5020152;28;20491;-67
2022/10/12 03:31:21;;;;;;;24.97;22.73;;;2.70;99.90;;;;;;5017956;28;20469;-66
2022/10/12 03:33:48;;;;;;;27.83;22.10;;;2.60;99.90;;;;;;5022187;28;21027;-66
2022/10/12 03:36:15;;;;;;;25.60;22.87;;;2.50;99.90;;;;;;5022125;28;20460;-66
2022/10/12 03:38:43;;;;;;;25.10;22.70;;;2.40;99.90;;;;;;5018638;28;20839;-66
2022/10/12 03:41:10;;;;;;;25.77;22.97;;;2.40;99.90;;;;;;5021191;28;20465;-66
2022/10/12 03:43:37;;;;;;;25.50;22.97;;;2.40;99.90;;;;;;5018014;28;20463;-66
2022/10/12 03:46:05;;;;;;;28.97;22.10;;;2.50;99.90;;;;;;5015717;28;20830;-66
2022/10/12 03:48:31;;;;;;;26.87;22.90;;;2.50;99.90;;;;;;5023771;28;20488;-66
2022/10/12 03:50:58;;;;;;;25.73;23.07;;;2.50;99.90;;;;;;5024109;28;20460;-66
2022/10/12 03:53:25;;;;;;;25.03;22.40;;;2.60;99.90;;;;;;5017462;28;20941;-66
2022/10/12 03:55:53;;;;;;;33.90;23.47;;;2.70;99.90;;;;;;5017008;28;20462;-66
2022/10/12 03:58:20;;;;;;;24.80;21.40;;;2.80;99.90;;;;;;5021210;28;20539;-66
2022/10/12 04:00:47;;;;;;;30.20;23.90;;;2.90;99.90;;;;;;5020269;28;20483;-66
2022/10/12 04:03:14;;;;;;;28.77;22.50;;;3.00;99.90;;;;;;5018760;28;21105;-66
2022/10/12 04:05:41;;;;;;;26.77;24.33;;;3.10;99.90;;;;;;5022614;28;20469;-66
2022/10/12 04:08:08;;;;;;;28.40;23.50;;;3.10;99.90;;;;;;5015126;28;20495;-66
2022/10/12 04:10:35;;;;;;;29.10;21.87;;;3.00;99.90;;;;;;5016570;28;20490;-66
2022/10/12 04:13:03;;;;;;;32.70;22.43;;;3.00;99.90;;;;;;5014408;28;20824;-66
2022/10/12 04:15:31;;;;;;;33.03;21.30;;;3.00;99.90;;;;;;5016321;28;20461;-66
2022/10/12 04:17:58;;;;;;;33.07;21.00;;;3.10;99.90;;;;;;5017087;28;20465;-66
2022/10/12 04:20:25;;;;;;;28.53;22.67;;;3.10;99.90;;;;;;5017874;28;20495;-66
2022/10/12 04:22:53;;;;;;;32.50;21.47;;;3.10;99.90;;;;;;5020182;28;20468;-69
2022/10/12 04:25:20;;;;;;;31.23;23.30;;;3.10;99.90;;;;;;5023346;28;20488;-69
2022/10/12 04:27:46;;;;;;;27.17;21.80;;;3.20;99.90;;;;;;5022938;28;20982;-68
2022/10/12 04:30:14;;;;;;;23.37;21.07;;;3.10;99.90;;;;;;5020987;28;20462;-68
2022/10/12 04:32:41;;;;;;;26.13;21.90;;;3.20;99.90;;;;;;5023867;28;20475;-68
2022/10/12 04:35:08;;;;;;;24.40;22.20;;;3.20;99.90;;;;;;5020602;28;20468;-68
2022/10/12 04:37:35;;;;;;;28.20;21.53;;;3.30;99.90;;;;;;5022372;28;20467;-69
2022/10/12 04:40:02;;;;;;;23.10;20.80;;;3.20;99.90;;;;;;5019831;28;20516;-68
2022/10/12 04:42:29;;;;;;;25.07;22.40;;;3.20;99.90;;;;;;5020309;28;20466;-69
2022/10/12 04:44:56;;;;;;;24.20;20.87;;;3.20;99.90;;;;;;5019055;28;20959;-68
2022/10/12 04:47:24;;;;;;;27.00;22.10;;;3.20;99.90;;;;;;5018018;28;20493;-66
2022/10/12 04:49:51;;;;;;;22.47;20.47;;;3.10;99.90;;;;;;5019650;28;20515;-67
2022/10/12 04:52:18;;;;;;;23.53;21.33;;;3.10;99.90;;;;;;5017248;28;20468;-66
2022/10/12 04:54:45;;;;;;;23.97;21.50;;;3.00;99.90;;;;;;5016332;28;20473;-66
2022/10/12 04:57:11;;;;;;;24.10;21.90;;;3.00;99.90;;;;;;5018809;28;20806;-66
2022/10/12 04:59:38;;;;;;;36.07;21.70;;;3.00;99.90;;;;;;5018835;28;20852;-66
2022/10/12 05:02:06;;;;;;;24.17;21.73;;;3.00;99.90;;;;;;5018018;28;20466;-66
2022/10/12 05:04:34;;;;;;;28.37;22.57;;;3.00;99.90;;;;;;5024866;28;20464;-69
2022/10/12 05:07:01;;;;;;;36.70;20.70;;;3.00;99.90;;;;;;5023093;28;20496;-69
2022/10/12 05:09:27;;;;;;;23.17;20.87;;;3.10;99.90;;;;;;5022327;28;20466;-69
2022/10/12 05:11:54;;;;;;;27.00;21.37;;;3.10;99.90;;;;;;5022726;28;20937;-69
2022/10/12 05:14:22;;;;;;;22.97;20.80;;;3.10;99.90;;;;;;5020508;28;20464;-68
2022/10/12 05:16:49;;;;;;;24.33;21.93;;;3.10;99.90;;;;;;5018906;28;20483;-69
2022/10/12 05:19:16;;;;;;;27.00;22.07;;;3.00;99.90;;;;;;5020612;28;20461;-69
2022/10/12 05:21:44;;;;;;;22.53;20.53;;;3.00;99.90;;;;;;5019055;28;20476;-69
2022/10/12 05:24:11;;;;;;;27.20;22.20;;;3.00;99.90;;;;;;5021670;28;20456;-66
2022/10/12 05:26:37;;;;;;;24.57;22.20;;;2.90;99.90;;;;;;5019237;28;20466;-68
2022/10/12 05:29:04;;;;;;;26.73;24.00;;;3.00;99.90;;;;;;5017090;28;20492;-68
2022/10/12 05:31:32;;;;;;;28.63;23.67;;;3.20;99.90;;;;;;5021396;28;20472;-68
2022/10/12 05:33:59;;;;;;;30.10;24.10;;;3.20;99.90;;;;;;5020591;28;20939;-68
2022/10/12 05:36:26;;;;;;;29.20;23.30;;;3.20;99.90;;;;;;5020453;28;20465;-68
2022/10/12 05:38:54;;;;;;;33.77;26.47;;;3.00;99.90;;;;;;5024758;28;20465;-68
2022/10/12 05:41:21;;;;;;;27.00;24.10;;;2.90;99.90;;;;;;5020165;28;20477;-68
2022/10/12 05:43:48;;;;;;;30.67;25.10;;;2.90;99.90;;;;;;5019489;28;20484;-68
2022/10/12 05:46:15;;;;;;;32.57;23.47;;;2.90;99.90;;;;;;5023232;28;20492;-68
2022/10/12 05:48:42;;;;;;;30.13;23.63;;;2.80;99.90;;;;;;5021236;28;20487;-69
2022/10/12 05:51:09;;;;;;;24.13;21.53;;;2.80;99.90;;;;;;5022734;28;20470;-68
2022/10/12 05:53:36;;;;;;;24.77;22.30;;;2.90;99.90;;;;;;5023315;28;20487;-68
2022/10/12 05:56:05;;;;;;;23.77;21.63;;;2.90;99.90;;;;;;5022571;28;20461;-68
2022/10/12 05:58:33;;;;;;;24.13;21.90;;;2.90;99.90;;;;;;5016558;28;20453;-68
2022/10/12 06:01:06;;;;;;;26.73;23.80;;;2.90;99.90;;;;;;5022006;28;20559;-68
2022/10/12 06:03:34;;;;;;;29.93;23.70;;;3.00;99.90;;;;;;5019243;28;20461;-69
2022/10/12 06:06:01;;;;;;;26.30;23.20;;;3.10;99.90;;;;;;5020063;28;20480;-69
2022/10/12 06:08:29;;;;;;;26.07;23.40;;;3.10;99.90;;;;;;5019398;28;20500;-69
2022/10/12 06:10:56;;;;;;;24.73;22.13;;;3.10;99.90;;;;;;5015073;28;20453;-68
2022/10/12 06:13:25;;;;;;;40.80;23.73;;;3.10;99.90;;;;;;5019706;28;20462;-68
2022/10/12 06:15:52;;;;;;;25.73;23.20;;;3.10;99.90;;;;;;5022420;28;20456;-69
2022/10/12 06:18:19;;;;;;;25.20;22.80;;;3.10;99.90;;;;;;5020367;28;20464;-68
2022/10/12 06:20:48;;;;;;;27.40;23.00;;;3.20;99.90;;;;;;5020541;28;20495;-69
2022/10/12 06:23:15;;;;;;;28.10;23.57;;;3.20;99.90;;;;;;5018693;28;20519;-69
2022/10/12 06:25:42;;;;;;;30.77;23.93;;;3.20;99.90;;;;;;5019556;28;20468;-69
2022/10/12 06:28:09;;;;;;;25.90;23.37;;;3.30;99.90;;;;;;5020637;28;20496;-69
2022/10/12 06:30:38;;;;;;;25.23;22.50;;;3.30;99.90;;;;;;5021491;28;20705;-69
2022/10/12 06:33:06;;;;;;;26.77;24.13;;;3.40;99.90;;;;;;5021252;28;20544;-68
2022/10/12 06:35:33;;;;;;;29.80;24.90;;;3.40;99.90;;;;;;5018974;28;20457;-68
2022/10/12 06:38:00;;;;;;;26.00;23.40;;;3.50;99.90;;;;;;5021512;28;20465;-68
2022/10/12 06:40:27;;;;;;;32.10;23.27;;;3.50;99.90;;;;;;5017279;28;20469;-68
2022/10/12 06:42:54;;;;;;;25.47;22.90;;;3.60;99.90;;;;;;5016854;28;20468;-68
2022/10/12 06:45:20;;;;;;;25.60;22.77;;;3.50;99.90;;;;;;5021285;28;20475;-68
2022/10/12 06:47:49;;;;;;;25.83;23.40;;;3.50;99.90;;;;;;5015125;28;20497;-68
2022/10/12 06:50:15;;;;;;;26.33;23.70;;;3.60;99.90;;;;;;5018518;28;20829;-68
2022/10/12 06:52:43;;;;;;;25.63;22.90;;;3.80;99.90;;;;;;5021243;28;20760;-68
2022/10/12 06:55:11;;;;;;;33.70;23.83;;;3.80;99.90;;;;;;5015820;28;20457;-68
2022/10/12 06:57:39;;;;;;;33.70;24.77;;;3.90;99.90;;;;;;5015211;28;20611;-68
2022/10/12 07:00:08;;;;;;;26.90;24.20;;;4.10;99.90;;;;;;5015744;28;20821;-68
2022/10/12 07:02:35;;;;;;;31.80;23.90;;;4.30;99.90;;;;;;5021307;28;20530;-68
2022/10/12 07:05:04;;;;;;;26.60;23.33;;;4.60;99.90;;;;;;5024602;28;20462;-68
2022/10/12 07:07:31;;;;;;;27.30;23.07;;;4.70;99.90;;;;;;5018430;28;20476;-68
2022/10/12 07:09:58;;;;;;;28.13;24.53;;;4.90;99.90;;;;;;5015491;28;20492;-68
2022/10/12 07:12:26;;;;;;;28.90;21.90;;;5.10;99.90;;;;;;5022490;28;20515;-68
2022/10/12 07:14:53;;;;;;;25.27;22.53;;;5.20;99.90;;;;;;5017114;28;20469;-68
2022/10/12 07:17:20;;;;;;;33.53;24.30;;;5.30;99.90;;;;;;5021864;28;20834;-68
2022/10/12 07:19:47;;;;;;;32.23;23.93;;;5.40;99.90;;;;;;5011814;28;20821;-68
2022/10/12 07:22:15;;;;;;;36.40;23.73;;;5.50;99.90;;;;;;5020496;28;20527;-68
2022/10/12 07:24:42;;;;;;;30.80;23.90;;;5.60;99.90;;;;;;5021284;28;20472;-68
2022/10/12 07:27:10;;;;;;;32.27;24.50;;;5.80;99.90;;;;;;5023615;28;20475;-68
2022/10/12 07:29:38;;;;;;;28.77;22.67;;;6.00;99.90;;;;;;5016426;28;20786;-68
2022/10/12 07:32:05;;;;;;;34.30;22.80;;;6.10;99.90;;;;;;5020161;28;21348;-68
2022/10/12 07:34:32;;;;;;;46.47;24.10;;;6.30;99.90;;;;;;5021483;28;20469;-68
2022/10/12 07:36:58;;;;;;;33.23;22.70;;;6.50;99.90;;;;;;5021725;28;21171;-68
2022/10/12 07:39:26;;;;;;;32.43;23.33;;;6.60;99.90;;;;;;5017927;28;20940;-68
2022/10/12 07:41:54;;;;;;;25.57;21.70;;;6.80;99.90;;;;;;5019401;28;20862;-68
2022/10/12 07:44:23;;;;;;;38.30;24.67;;;7.00;99.90;;;;;;5026091;28;20481;-69
2022/10/12 07:46:50;;;;;;;49.20;24.50;;;7.10;99.90;;;;;;5019084;28;20543;-68
2022/10/12 07:49:17;;;;;;;32.70;23.20;;;7.20;99.90;;;;;;5019294;28;20539;-68
2022/10/12 07:51:45;;;;;;;31.87;24.20;;;7.40;99.90;;;;;;5021972;28;20464;-68
2022/10/12 07:54:11;;;;;;;36.47;24.40;;;7.60;99.90;;;;;;5022346;28;20979;-68
2022/10/12 07:56:39;;;;;;;33.80;24.97;;;7.60;99.90;;;;;;5019397;28;20975;-68
2022/10/12 07:59:08;;;;;;;29.53;26.40;;;7.70;99.90;;;;;;5025909;28;20475;-68
2022/10/12 08:01:34;;;;;;;33.43;24.47;;;7.80;99.90;;;;;;5021064;28;20514;-68
2022/10/12 08:04:01;;;;;;;30.40;24.50;;;7.90;99.90;;;;;;5022140;28;20696;-69
2022/10/12 08:06:31;;;;;;;34.67;26.33;;;8.20;99.90;;;;;;5023873;28;20900;-68
2022/10/12 08:08:58;;;;;;;32.27;25.50;;;8.20;99.90;;;;;;5025439;28;20494;-68
2022/10/12 08:11:25;;;;;;;30.00;26.00;;;8.20;99.90;;;;;;5023289;28;20467;-67
2022/10/12 08:13:54;;;;;;;27.30;24.53;;;8.40;99.90;;;;;;5019138;28;20824;-67
2022/10/12 08:16:22;;;;;;;29.37;24.80;;;8.40;99.90;;;;;;5024503;28;20468;-68
2022/10/12 08:18:49;;;;;;;37.30;25.10;;;8.50;99.90;;;;;;5020208;28;20480;-69
2022/10/12 08:21:17;;;;;;;37.03;25.90;;;8.50;99.90;;;;;;5021180;28;20485;-69
2022/10/12 08:23:45;;;;;;;32.63;24.37;;;8.80;99.90;;;;;;5022940;28;20460;-68
2022/10/12 08:26:12;;;;;;;26.53;23.43;;;8.80;99.90;;;;;;5022448;28;20479;-69
2022/10/12 08:28:39;;;;;;;36.07;23.90;;;8.80;99.90;;;;;;5023525;28;20496;-69
2022/10/12 08:31:09;;;;;;;38.20;25.03;;;8.90;99.90;;;;;;5022373;28;20607;-69
2022/10/12 08:33:36;;;;;;;27.10;24.30;;;9.00;99.90;;;;;;5022785;28;20471;-68
2022/10/12 08:36:05;;;;;;;27.23;23.03;;;9.20;99.90;;;;;;5023267;28;20917;-68
2022/10/12 08:38:32;;;;;;;28.77;24.60;;;9.50;99.90;;;;;;5018760;28;20540;-70
2022/10/12 08:41:10;;;;;;;27.70;23.60;;;9.60;99.90;;;;;;5017937;28;20464;-68
2022/10/12 08:43:51;;;;;;;27.30;23.17;;;9.70;99.90;;;;;;5014376;28;20479;-68
2022/10/12 08:46:21;;;;;;;29.70;23.70;;;9.90;99.90;;;;;;5012049;28;20449;-68
2022/10/12 08:48:53;;;;;;;29.50;22.37;;;10.00;99.90;;;;;;5021488;28;20994;-70
2022/10/12 08:51:23;;;;;;;28.03;24.77;;;10.00;99.90;;;;;;5025517;28;20538;-68
2022/10/12 08:53:55;;;;;;;29.73;24.37;;;9.90;99.90;;;;;;5019840;28;20836;-68
2022/10/12 08:56:23;;;;;;;29.10;25.47;;;10.00;99.90;;;;;;5023646;28;20500;-68
2022/10/12 08:58:52;;;;;;;27.63;23.50;;;10.10;99.90;;;;;;5021765;28;20460;-68
2022/10/12 09:01:27;;;;;;;27.07;22.20;;;10.10;99.90;;;;;;5017543;28;20828;-68
2022/10/12 09:04:10;;;;;;;29.47;24.53;;;10.00;99.90;;;;;;5020077;28;20458;-68
2022/10/12 09:06:41;;;;;;;26.67;23.87;;;10.00;99.90;;;;;;5017725;28;20978;-69
2022/10/12 09:09:34;;;;;;;28.03;21.97;;;10.10;99.90;;;;;;5015670;28;20551;-70
2022/10/12 09:12:13;;;;;;;27.00;23.03;;;10.00;99.90;;;;;;5020515;28;20624;-70
2022/10/12 09:14:42;;;;;;;31.20;22.67;;;9.90;99.90;;;;;;5013422;28;20473;-68
2022/10/12 09:17:25;;;;;;;25.53;22.17;;;9.90;99.90;;;;;;5018023;28;20476;-67
2022/10/12 09:20:01;;;;;;;25.37;22.77;;;10.10;99.90;;;;;;5015396;28;20556;-68
2022/10/12 09:22:29;;;;;;;33.10;27.60;;;10.30;99.90;;;;;;5020076;28;20473;-70
2022/10/12 09:24:57;;;;;;;28.77;23.90;;;10.40;99.90;;;;;;5017723;28;20837;-68
2022/10/12 09:27:29;;;;;;;26.33;22.60;;;10.50;99.90;;;;;;5017677;28;20527;-69
2022/10/12 09:29:58;;;;;;;26.13;23.00;;;10.60;99.90;;;;;;5017005;28;20500;-71
2022/10/12 09:32:40;;;;;;;23.67;21.00;;;10.80;99.90;;;;;;5018829;28;20801;-68
2022/10/12 09:35:10;;;;;;;28.90;23.80;;;11.10;99.90;;;;;;5013228;28;20881;-68
2022/10/12 09:37:38;;;;;;;33.83;22.07;;;11.30;99.90;;;;;;5017271;28;20460;-69
2022/10/12 09:40:06;;;;;;;28.67;21.73;;;11.50;99.90;;;;;;5021868;28;20460;-68
2022/10/12 09:42:34;;;;;;;35.50;21.70;;;11.80;99.90;;;;;;5017701;28;20464;-68
2022/10/12 09:45:03;;;;;;;25.43;23.10;;;12.00;99.90;;;;;;5020392;28;20552;-68
2022/10/12 09:47:33;;;;;;;24.07;21.70;;;12.20;99.90;;;;;;5022634;28;20464;-67
2022/10/12 09:50:01;;;;;;;23.97;20.80;;;12.30;99.90;;;;;;5022503;28;20484;-69
2022/10/12 09:52:31;;;;;;;25.43;20.57;;;12.60;99.90;;;;;;5017954;28;20441;-68
2022/10/12 09:55:02;;;;;;;26.20;20.80;;;12.90;99.90;;;;;;5019961;28;20465;-67
2022/10/12 09:57:32;;;;;;;26.70;21.30;;;13.50;99.90;;;;;;5021178;28;20823;-71
2022/10/12 10:00:04;;;;;;;24.37;20.00;;;14.10;99.90;;;;;;5020741;28;20464;-68
2022/10/12 10:02:46;;;;;;;33.20;20.70;;;14.40;99.90;;;;;;5017320;28;20874;-70
2022/10/12 10:05:25;;;;;;;27.27;20.47;;;14.60;99.90;;;;;;5020297;28;20457;-67
2022/10/12 10:07:52;;;;;;;22.17;19.97;;;14.90;99.90;;;;;;5022652;28;20951;-67
2022/10/12 10:10:21;;;;;;;38.37;22.13;;;15.60;99.90;;;;;;5019946;28;20491;-68
2022/10/12 10:12:50;;;;;;;29.23;22.00;;;16.60;99.90;;;;;;5016612;28;20465;-67
2022/10/12 10:15:24;;;;;;;21.73;19.47;;;17.20;99.90;;;;;;5014332;28;20989;-67
2022/10/12 10:17:55;;;;;;;20.97;18.80;;;17.40;99.90;;;;;;5018172;28;20560;-67
2022/10/12 10:20:29;;;;;;;20.77;18.63;;;17.90;99.90;;;;;;5017715;28;20882;-67
2022/10/12 10:22:57;;;;;;;22.77;20.30;;;18.10;99.90;;;;;;5018279;28;20559;-67
2022/10/12 10:25:24;;;;;;;19.80;18.20;;;18.40;99.90;;;;;;5016812;28;20482;-67
2022/10/12 10:28:10;;;;;;;22.70;18.73;;;18.60;99.90;;;;;;5019652;28;20476;-70
2022/10/12 10:30:37;;;;;;;19.87;18.17;;;18.70;99.90;;;;;;5018039;28;20493;-67
2022/10/12 10:33:16;;;;;;;21.23;17.80;;;18.60;99.90;;;;;;5016537;28;20469;-67
2022/10/12 10:35:57;;;;;;;20.53;18.63;;;18.80;99.90;;;;;;5011875;28;20483;-65
2022/10/12 10:38:25;;;;;;;20.00;18.10;;;19.20;99.90;;;;;;5021158;28;20496;-66
2022/10/12 10:40:54;;;;;;;19.73;18.23;;;19.40;99.90;;;;;;5021200;28;20468;-67
2022/10/12 10:43:26;;;;;;;19.40;17.63;;;19.60;99.90;;;;;;5021773;28;20460;-68
2022/10/12 10:45:56;;;;;;;19.10;17.40;;;19.20;99.90;;;;;;5019108;28;20469;-67
2022/10/12 10:48:27;;;;;;;19.73;17.97;;;18.80;99.90;;;;;;5017178;28;20481;-67
2022/10/12 10:50:59;;;;;;;19.10;17.53;;;19.00;99.90;;;;;;5015942;28;20473;-67
2022/10/12 10:53:28;;;;;;;19.63;17.77;;;18.90;99.90;;;;;;5020087;28;20542;-68
2022/10/12 10:56:00;;;;;;;18.60;17.20;;;19.20;99.90;;;;;;5017339;28;20471;-67
2022/10/12 10:58:33;;;;;;;20.90;18.87;;;19.50;99.90;;;;;;5015148;28;20506;-67
2022/10/12 11:01:08;;;;;;;19.53;18.23;;;19.20;99.90;;;;;;5017390;28;20471;-68
2022/10/12 11:03:46;;;;;;;25.40;19.03;;;19.10;99.90;;;;;;5014886;28;20464;-67
2022/10/12 11:06:19;;;;;;;20.67;18.77;;;19.10;99.90;;;;;;5020926;28;21038;-67
2022/10/12 11:08:48;;;;;;;20.83;18.83;;;19.80;99.90;;;;;;5014498;28;20470;-68
2022/10/12 11:11:18;;;;;;;20.17;18.13;;;20.50;99.90;;;;;;5018332;28;20953;-67
2022/10/12 11:13:51;;;;;;;20.37;18.37;;;20.90;99.90;;;;;;5016960;28;20941;-67
2022/10/12 11:16:28;;;;;;;22.43;18.70;;;20.90;99.80;;;;;;5017481;28;20548;-68
2022/10/12 11:18:59;;;;;;;22.77;19.33;;;20.40;99.90;;;;;;5020601;28;20559;-68
2022/10/12 11:21:32;;;;;;;24.20;18.30;;;20.80;99.90;;;;;;5014255;28;20488;-67
2022/10/12 11:24:05;;;;;;;23.27;19.50;;;21.20;98.80;;;;;;5015448;28;20469;-68
2022/10/12 11:26:37;;;;;;;20.83;18.90;;;21.30;98.80;;;;;;5019692;28;20464;-68
2022/10/12 11:29:05;;;;;;;23.07;19.10;;;20.80;98.30;;;;;;5021031;28;20507;-68
2022/10/12 11:31:36;;;;;;;20.73;18.73;;;20.40;99.20;;;;;;5021896;28;20453;-68
2022/10/12 11:34:08;;;;;;;20.90;18.90;;;20.90;97.70;;;;;;5022912;28;20468;-68
2022/10/12 11:36:39;;;;;;;19.37;17.50;;;20.90;97.20;;;;;;5024114;28;20471;-68
2022/10/12 11:39:13;;;;;;;19.53;17.47;;;19.70;98.90;;;;;;5024320;28;20973;-69
2022/10/12 11:41:45;;;;;;;19.73;17.70;;;19.80;99.20;;;;;;5018527;28;20555;-68
2022/10/12 11:44:17;;;;;;;19.80;17.80;;;19.90;99.50;;;;;;5021853;28;20568;-70
2022/10/12 11:46:48;;;;;;;20.90;19.10;;;20.70;98.40;;;;;;5024204;28;20530;-70
2022/10/12 11:49:23;;;;;;;19.80;18.20;;;21.00;97.80;;;;;;5022711;28;20538;-67
2022/10/12 11:51:51;;;;;;;21.00;18.00;;;21.30;96.70;;;;;;5021351;28;20464;-68
2022/10/12 11:54:27;;;;;;;19.70;18.27;;;21.00;97.10;;;;;;5022847;28;21677;-68
2022/10/12 11:56:58;;;;;;;19.70;18.07;;;20.90;97.20;;;;;;5020587;28;20459;-68
2022/10/12 11:59:30;;;;;;;20.97;18.60;;;19.90;97.70;;;;;;5022048;28;21002;-68
2022/10/12 12:02:05;;;;;;;22.70;18.70;;;19.70;98.40;;;;;;5018583;28;20459;-68
2022/10/12 12:04:36;;;;;;;19.70;18.20;;;19.00;99.50;;;;;;5022840;28;20472;-68
2022/10/12 12:07:04;;;;;;;20.30;18.60;;;19.50;99.80;;;;;;5020639;28;20460;-68
2022/10/12 12:09:39;;;;;;;21.23;18.57;;;19.70;99.00;;;;;;5021277;28;20480;-68
2022/10/12 12:12:28;;;;;;;20.77;19.00;;;19.50;99.20;;;;;;5021503;28;20464;-68
2022/10/12 12:15:19;;;;;;;20.03;18.50;;;20.00;99.20;;;;;;5022055;28;21035;-70
2022/10/12 12:18:09;;;;;;;21.73;19.63;;;20.30;98.30;;;;;;5022235;28;20522;-68
2022/10/12 12:21:03;;;;;;;19.77;18.37;;;20.60;98.00;;;;;;5021919;28;20563;-69
2022/10/12 12:23:37;;;;;;;19.67;17.93;;;19.90;98.40;;;;;;5018005;28;20893;-68
2022/10/12 12:26:12;;;;;;;18.07;16.90;;;20.10;98.40;;;;;;5018524;28;21209;-69
2022/10/12 12:28:41;;;;;;;19.00;17.60;;;20.30;98.20;;;;;;5020782;28;20491;-68
2022/10/12 12:31:15;;;;;;;19.50;17.90;;;20.50;97.90;;;;;;5019735;28;20492;-68
2022/10/12 12:33:45;;;;;;;20.67;18.67;;;20.40;98.10;;;;;;5013337;28;20498;-68
2022/10/12 12:36:25;;;;;;;20.07;18.37;;;20.30;97.90;;;;;;5014243;28;20460;-71
2022/10/12 12:38:52;;;;;;;20.00;18.20;;;20.20;98.80;;;;;;5021210;28;20789;-68
2022/10/12 12:41:21;;;;;;;19.73;18.07;;;20.50;98.70;;;;;;5020229;28;20824;-68
2022/10/12 12:43:58;;;;;;;19.80;18.00;;;20.70;98.50;;;;;;5017474;28;20782;-70
2022/10/12 12:46:41;;;;;;;28.90;17.87;;;21.00;98.70;;;;;;5017360;28;20549;-68